Elmsdale, Canada
Current Conditions -  °F | °C
As of 11:00 AM on Monday 22 Dec 2014 (Local Time) from CYHZ Reporting Station
Light Snow Light Snow  
Wind Chill: 18°   Ceiling: 1600
Heat Index: 27°   Visibility: 12mi
Dew Point: 23°   Wind: 8mph
Humidity: 86%   Direction: 20°NNE
Pressure: 30.44"   Gusts: NA
Location:  44.97°N, 63.52°W
Report Text: CYHZ 221500Z 02007KT 12SM -SN OVC016 M03/M05 A3044 RMK SC8 SLP317
Loading
Personal Weather Stations






























Interactive Weather Map New forecast layout! Learn more

10-Day Weather Forecast

Advertisements
Track Severe Weather on mobile